sensor_id;sensor_type;location;lat;lon;timestamp;P1;durP1;ratioP1;P2;durP2;ratioP2
7001;SDS011;3541;53.230;10.518;2022-09-06T00:00:55;3.17;;;2.17;;
7001;SDS011;3541;53.230;10.518;2022-09-06T00:03:22;3.75;;;2.40;;
7001;SDS011;3541;53.230;10.518;2022-09-06T00:05:51;2.40;;;2.15;;
7001;SDS011;3541;53.230;10.518;2022-09-06T00:08:18;4.35;;;2.33;;
7001;SDS011;3541;53.230;10.518;2022-09-06T00:10:44;3.55;;;2.40;;
7001;SDS011;3541;53.230;10.518;2022-09-06T00:13:11;3.05;;;2.40;;
7001;SDS011;3541;53.230;10.518;2022-09-06T00:15:38;3.70;;;2.30;;
7001;SDS011;3541;53.230;10.518;2022-09-06T00:18:06;3.30;;;2.40;;
7001;SDS011;3541;53.230;10.518;2022-09-06T00:20:36;4.03;;;2.00;;
7001;SDS011;3541;53.230;10.518;2022-09-06T00:23:05;2.63;;;2.30;;
7001;SDS011;3541;53.230;10.518;2022-09-06T00:25:32;3.78;;;2.60;;
7001;SDS011;3541;53.230;10.518;2022-09-06T00:28:00;3.63;;;2.30;;
7001;SDS011;3541;53.230;10.518;2022-09-06T00:30:28;5.63;;;3.08;;
7001;SDS011;3541;53.230;10.518;2022-09-06T00:32:56;2.70;;;2.13;;
7001;SDS011;3541;53.230;10.518;2022-09-06T00:35:24;2.53;;;2.05;;
7001;SDS011;3541;53.230;10.518;2022-09-06T00:37:54;5.85;;;2.50;;
7001;SDS011;3541;53.230;10.518;2022-09-06T00:40:21;3.85;;;2.50;;
7001;SDS011;3541;53.230;10.518;2022-09-06T00:42:48;4.15;;;2.22;;
7001;SDS011;3541;53.230;10.518;2022-09-06T00:45:15;2.70;;;2.42;;
7001;SDS011;3541;53.230;10.518;2022-09-06T00:47:42;2.28;;;2.08;;
7001;SDS011;3541;53.230;10.518;2022-09-06T00:50:10;4.93;;;2.20;;
7001;SDS011;3541;53.230;10.518;2022-09-06T00:52:40;6.95;;;2.47;;
7001;SDS011;3541;53.230;10.518;2022-09-06T00:55:09;4.47;;;2.40;;
7001;SDS011;3541;53.230;10.518;2022-09-06T00:57:36;2.78;;;2.33;;
7001;SDS011;3541;53.230;10.518;2022-09-06T01:00:04;2.70;;;2.30;;
7001;SDS011;3541;53.230;10.518;2022-09-06T01:02:33;3.25;;;2.15;;
7001;SDS011;3541;53.230;10.518;2022-09-06T01:05:00;3.05;;;2.00;;
7001;SDS011;3541;53.230;10.518;2022-09-06T01:07:30;3.88;;;2.42;;
7001;SDS011;3541;53.230;10.518;2022-09-06T01:10:14;2.92;;;2.17;;
7001;SDS011;3541;53.230;10.518;2022-09-06T01:12:59;4.15;;;2.38;;
7001;SDS011;3541;53.230;10.518;2022-09-06T01:15:37;2.40;;;1.92;;
7001;SDS011;3541;53.230;10.518;2022-09-06T01:18:14;3.67;;;2.35;;
7001;SDS011;3541;53.230;10.518;2022-09-06T01:20:50;3.75;;;2.10;;
7001;SDS011;3541;53.230;10.518;2022-09-06T01:23:28;4.72;;;2.22;;
7001;SDS011;3541;53.230;10.518;2022-09-06T01:29:29;2.60;;;2.40;;
7001;SDS011;3541;53.230;10.518;2022-09-06T01:32:03;3.30;;;2.00;;
7001;SDS011;3541;53.230;10.518;2022-09-06T01:34:36;4.45;;;2.50;;
7001;SDS011;3541;53.230;10.518;2022-09-06T01:37:07;3.50;;;1.80;;
7001;SDS011;3541;53.230;10.518;2022-09-06T01:39:37;4.65;;;2.50;;
7001;SDS011;3541;53.230;10.518;2022-09-06T01:42:06;3.40;;;2.05;;
7001;SDS011;3541;53.230;10.518;2022-09-06T01:44:37;4.32;;;2.38;;
7001;SDS011;3541;53.230;10.518;2022-09-06T01:47:09;2.95;;;2.10;;
7001;SDS011;3541;53.230;10.518;2022-09-06T01:49:46;4.10;;;2.40;;
7001;SDS011;3541;53.230;10.518;2022-09-06T01:52:29;3.40;;;2.13;;
7001;SDS011;3541;53.230;10.518;2022-09-06T01:55:04;3.63;;;2.45;;
7001;SDS011;3541;53.230;10.518;2022-09-06T01:57:40;2.95;;;2.00;;
7001;SDS011;3541;53.230;10.518;2022-09-06T02:00:18;3.90;;;2.40;;
7001;SDS011;3541;53.230;10.518;2022-09-06T02:02:49;4.75;;;2.72;;
7001;SDS011;3541;53.230;10.518;2022-09-06T02:05:23;5.40;;;2.17;;
7001;SDS011;3541;53.230;10.518;2022-09-06T02:07:55;3.30;;;2.30;;
7001;SDS011;3541;53.230;10.518;2022-09-06T02:10:26;2.97;;;2.20;;
7001;SDS011;3541;53.230;10.518;2022-09-06T02:12:58;3.05;;;2.15;;
7001;SDS011;3541;53.230;10.518;2022-09-06T02:15:29;2.70;;;2.28;;
7001;SDS011;3541;53.230;10.518;2022-09-06T02:17:59;3.42;;;2.17;;
7001;SDS011;3541;53.230;10.518;2022-09-06T02:20:31;3.42;;;2.20;;
7001;SDS011;3541;53.230;10.518;2022-09-06T02:23:00;4.28;;;2.10;;
7001;SDS011;3541;53.230;10.518;2022-09-06T02:25:31;2.70;;;1.98;;
7001;SDS011;3541;53.230;10.518;2022-09-06T02:28:01;3.40;;;2.38;;
7001;SDS011;3541;53.230;10.518;2022-09-06T02:30:30;2.72;;;2.05;;
7001;SDS011;3541;53.230;10.518;2022-09-06T02:33:00;2.63;;;1.92;;
7001;SDS011;3541;53.230;10.518;2022-09-06T02:35:31;2.63;;;2.10;;
7001;SDS011;3541;53.230;10.518;2022-09-06T02:38:07;4.03;;;2.42;;
7001;SDS011;3541;53.230;10.518;2022-09-06T02:40:34;4.20;;;2.42;;
7001;SDS011;3541;53.230;10.518;2022-09-06T02:43:01;3.05;;;2.33;;
7001;SDS011;3541;53.230;10.518;2022-09-06T02:45:29;2.70;;;2.13;;
7001;SDS011;3541;53.230;10.518;2022-09-06T02:47:56;3.03;;;2.45;;
7001;SDS011;3541;53.230;10.518;2022-09-06T02:50:23;3.70;;;1.77;;
7001;SDS011;3541;53.230;10.518;2022-09-06T02:52:59;2.90;;;2.13;;
7001;SDS011;3541;53.230;10.518;2022-09-06T02:55:27;2.53;;;1.90;;
7001;SDS011;3541;53.230;10.518;2022-09-06T02:57:53;2.90;;;2.20;;
7001;SDS011;3541;53.230;10.518;2022-09-06T03:00:20;4.13;;;2.28;;
7001;SDS011;3541;53.230;10.518;2022-09-06T03:02:48;2.10;;;1.88;;
7001;SDS011;3541;53.230;10.518;2022-09-06T03:05:14;3.45;;;1.80;;
7001;SDS011;3541;53.230;10.518;2022-09-06T03:07:41;2.38;;;1.90;;
7001;SDS011;3541;53.230;10.518;2022-09-06T03:10:08;2.75;;;1.80;;
7001;SDS011;3541;53.230;10.518;2022-09-06T03:12:35;4.95;;;2.05;;
7001;SDS011;3541;53.230;10.518;2022-09-06T03:15:01;3.15;;;1.80;;
7001;SDS011;3541;53.230;10.518;2022-09-06T03:17:28;3.88;;;1.90;;
7001;SDS011;3541;53.230;10.518;2022-09-06T03:19:56;2.95;;;1.80;;
7001;SDS011;3541;53.230;10.518;2022-09-06T03:22:23;1.85;;;1.60;;
7001;SDS011;3541;53.230;10.518;2022-09-06T03:24:49;3.05;;;1.75;;
7001;SDS011;3541;53.230;10.518;2022-09-06T03:27:16;3.00;;;1.70;;
7001;SDS011;3541;53.230;10.518;2022-09-06T03:29:42;1.70;;;1.60;;
7001;SDS011;3541;53.230;10.518;2022-09-06T03:32:09;3.97;;;1.90;;
7001;SDS011;3541;53.230;10.518;2022-09-06T03:34:36;2.42;;;1.70;;
7001;SDS011;3541;53.230;10.518;2022-09-06T03:37:04;2.53;;;1.90;;
7001;SDS011;3541;53.230;10.518;2022-09-06T03:39:30;2.30;;;1.80;;
7001;SDS011;3541;53.230;10.518;2022-09-06T03:41:57;3.00;;;1.80;;
7001;SDS011;3541;53.230;10.518;2022-09-06T03:44:24;4.68;;;1.88;;
7001;SDS011;3541;53.230;10.518;2022-09-06T03:46:50;3.00;;;1.77;;
7001;SDS011;3541;53.230;10.518;2022-09-06T03:49:17;3.40;;;1.70;;
7001;SDS011;3541;53.230;10.518;2022-09-06T03:51:43;2.08;;;1.60;;
7001;SDS011;3541;53.230;10.518;2022-09-06T03:54:11;2.55;;;1.70;;
7001;SDS011;3541;53.230;10.518;2022-09-06T03:56:38;3.72;;;1.50;;
7001;SDS011;3541;53.230;10.518;2022-09-06T03:59:04;3.33;;;1.40;;
7001;SDS011;3541;53.230;10.518;2022-09-06T04:01:31;5.57;;;1.65;;
7001;SDS011;3541;53.230;10.518;2022-09-06T04:03:58;2.20;;;1.63;;
7001;SDS011;3541;53.230;10.518;2022-09-06T04:06:25;6.90;;;1.70;;
7001;SDS011;3541;53.230;10.518;2022-09-06T04:08:51;3.80;;;1.88;;
7001;SDS011;3541;53.230;10.518;2022-09-06T04:11:19;2.42;;;1.83;;
7001;SDS011;3541;53.230;10.518;2022-09-06T04:13:46;3.67;;;1.40;;
7001;SDS011;3541;53.230;10.518;2022-09-06T04:16:13;2.13;;;1.50;;
7001;SDS011;3541;53.230;10.518;2022-09-06T04:18:41;3.03;;;1.30;;
7001;SDS011;3541;53.230;10.518;2022-09-06T04:21:08;2.30;;;1.40;;
7001;SDS011;3541;53.230;10.518;2022-09-06T04:23:34;2.72;;;1.50;;
7001;SDS011;3541;53.230;10.518;2022-09-06T04:26:01;1.35;;;1.25;;
7001;SDS011;3541;53.230;10.518;2022-09-06T04:28:29;1.90;;;1.42;;
7001;SDS011;3541;53.230;10.518;2022-09-06T04:30:57;1.63;;;1.42;;
7001;SDS011;3541;53.230;10.518;2022-09-06T04:33:24;1.90;;;1.67;;
7001;SDS011;3541;53.230;10.518;2022-09-06T04:35:52;1.90;;;1.40;;
7001;SDS011;3541;53.230;10.518;2022-09-06T04:38:20;3.15;;;1.73;;
7001;SDS011;3541;53.230;10.518;2022-09-06T04:40:47;1.20;;;1.10;;
7001;SDS011;3541;53.230;10.518;2022-09-06T04:43:14;2.22;;;1.50;;
7001;SDS011;3541;53.230;10.518;2022-09-06T04:45:42;1.50;;;1.40;;
7001;SDS011;3541;53.230;10.518;2022-09-06T04:48:09;1.67;;;1.35;;
7001;SDS011;3541;53.230;10.518;2022-09-06T04:50:36;1.40;;;1.30;;
7001;SDS011;3541;53.230;10.518;2022-09-06T04:53:03;4.22;;;1.67;;
7001;SDS011;3541;53.230;10.518;2022-09-06T04:55:30;1.30;;;1.20;;
7001;SDS011;3541;53.230;10.518;2022-09-06T04:57:57;1.60;;;1.50;;
7001;SDS011;3541;53.230;10.518;2022-09-06T05:00:24;3.03;;;1.40;;
7001;SDS011;3541;53.230;10.518;2022-09-06T05:02:52;2.50;;;1.40;;
7001;SDS011;3541;53.230;10.518;2022-09-06T05:05:19;1.40;;;1.20;;
7001;SDS011;3541;53.230;10.518;2022-09-06T05:07:46;2.92;;;1.40;;
7001;SDS011;3541;53.230;10.518;2022-09-06T05:10:13;1.38;;;1.20;;
7001;SDS011;3541;53.230;10.518;2022-09-06T05:12:40;2.25;;;1.30;;
7001;SDS011;3541;53.230;10.518;2022-09-06T05:15:07;2.25;;;1.30;;
7001;SDS011;3541;53.230;10.518;2022-09-06T05:17:34;1.77;;;1.20;;
7001;SDS011;3541;53.230;10.518;2022-09-06T05:20:02;4.07;;;1.23;;
7001;SDS011;3541;53.230;10.518;2022-09-06T05:22:29;2.60;;;1.40;;
7001;SDS011;3541;53.230;10.518;2022-09-06T05:24:56;1.42;;;1.30;;
7001;SDS011;3541;53.230;10.518;2022-09-06T05:27:23;1.75;;;1.30;;
7001;SDS011;3541;53.230;10.518;2022-09-06T05:29:49;1.15;;;1.05;;
7001;SDS011;3541;53.230;10.518;2022-09-06T05:32:16;2.25;;;1.23;;
7001;SDS011;3541;53.230;10.518;2022-09-06T05:34:42;4.03;;;1.38;;
7001;SDS011;3541;53.230;10.518;2022-09-06T05:37:10;2.60;;;1.20;;
7001;SDS011;3541;53.230;10.518;2022-09-06T05:39:37;2.42;;;1.20;;
7001;SDS011;3541;53.230;10.518;2022-09-06T05:42:03;1.45;;;1.33;;
7001;SDS011;3541;53.230;10.518;2022-09-06T05:44:30;2.03;;;1.20;;
7001;SDS011;3541;53.230;10.518;2022-09-06T05:46:57;2.13;;;1.58;;
7001;SDS011;3541;53.230;10.518;2022-09-06T05:49:24;1.85;;;1.27;;
7001;SDS011;3541;53.230;10.518;2022-09-06T05:51:50;4.07;;;1.38;;
7001;SDS011;3541;53.230;10.518;2022-09-06T05:54:18;1.80;;;1.13;;
7001;SDS011;3541;53.230;10.518;2022-09-06T05:56:45;2.30;;;1.40;;
7001;SDS011;3541;53.230;10.518;2022-09-06T05:59:11;2.10;;;1.30;;
7001;SDS011;3541;53.230;10.518;2022-09-06T06:01:45;2.85;;;1.30;;
7001;SDS011;3541;53.230;10.518;2022-09-06T06:04:12;5.85;;;1.70;;
7001;SDS011;3541;53.230;10.518;2022-09-06T06:06:39;2.97;;;1.20;;
7001;SDS011;3541;53.230;10.518;2022-09-06T06:09:06;2.38;;;1.30;;
7001;SDS011;3541;53.230;10.518;2022-09-06T06:11:34;1.67;;;1.27;;
7001;SDS011;3541;53.230;10.518;2022-09-06T06:14:01;2.13;;;1.20;;
7001;SDS011;3541;53.230;10.518;2022-09-06T06:16:28;1.77;;;1.13;;
7001;SDS011;3541;53.230;10.518;2022-09-06T06:18:55;1.60;;;1.27;;
7001;SDS011;3541;53.230;10.518;2022-09-06T06:21:22;2.10;;;1.35;;
7001;SDS011;3541;53.230;10.518;2022-09-06T06:23:51;3.08;;;1.40;;
7001;SDS011;3541;53.230;10.518;2022-09-06T06:26:19;2.22;;;1.67;;
7001;SDS011;3541;53.230;10.518;2022-09-06T06:28:47;4.97;;;1.50;;
7001;SDS011;3541;53.230;10.518;2022-09-06T06:31:15;4.95;;;1.33;;
7001;SDS011;3541;53.230;10.518;2022-09-06T06:33:43;3.88;;;1.63;;
7001;SDS011;3541;53.230;10.518;2022-09-06T06:36:17;2.00;;;1.40;;
7001;SDS011;3541;53.230;10.518;2022-09-06T06:38:45;1.30;;;1.20;;
7001;SDS011;3541;53.230;10.518;2022-09-06T06:41:14;2.20;;;1.25;;
7001;SDS011;3541;53.230;10.518;2022-09-06T06:43:42;2.67;;;1.60;;
7001;SDS011;3541;53.230;10.518;2022-09-06T06:46:10;2.42;;;1.30;;
7001;SDS011;3541;53.230;10.518;2022-09-06T06:48:38;1.10;;;1.00;;
7001;SDS011;3541;53.230;10.518;2022-09-06T06:51:06;3.83;;;1.33;;
7001;SDS011;3541;53.230;10.518;2022-09-06T06:53:33;2.35;;;1.23;;
7001;SDS011;3541;53.230;10.518;2022-09-06T06:56:00;1.67;;;1.10;;
7001;SDS011;3541;53.230;10.518;2022-09-06T06:58:37;1.73;;;1.30;;
7001;SDS011;3541;53.230;10.518;2022-09-06T07:01:04;2.97;;;1.38;;
7001;SDS011;3541;53.230;10.518;2022-09-06T07:03:34;3.38;;;1.52;;
7001;SDS011;3541;53.230;10.518;2022-09-06T07:06:01;2.30;;;1.35;;
7001;SDS011;3541;53.230;10.518;2022-09-06T07:08:28;2.25;;;1.38;;
7001;SDS011;3541;53.230;10.518;2022-09-06T07:10:54;3.00;;;1.30;;
7001;SDS011;3541;53.230;10.518;2022-09-06T07:13:21;1.35;;;1.23;;
7001;SDS011;3541;53.230;10.518;2022-09-06T07:15:47;3.63;;;1.13;;
7001;SDS011;3541;53.230;10.518;2022-09-06T07:18:14;2.50;;;1.27;;
7001;SDS011;3541;53.230;10.518;2022-09-06T07:20:42;2.42;;;1.38;;
7001;SDS011;3541;53.230;10.518;2022-09-06T07:23:09;2.63;;;1.45;;
7001;SDS011;3541;53.230;10.518;2022-09-06T07:25:35;2.13;;;1.27;;
7001;SDS011;3541;53.230;10.518;2022-09-06T07:28:03;1.40;;;1.30;;
7001;SDS011;3541;53.230;10.518;2022-09-06T07:30:32;2.47;;;1.50;;
7001;SDS011;3541;53.230;10.518;2022-09-06T07:33:01;1.75;;;1.33;;
7001;SDS011;3541;53.230;10.518;2022-09-06T07:35:30;3.58;;;1.48;;
7001;SDS011;3541;53.230;10.518;2022-09-06T07:37:58;1.92;;;1.40;;
7001;SDS011;3541;53.230;10.518;2022-09-06T07:40:27;2.67;;;1.20;;
7001;SDS011;3541;53.230;10.518;2022-09-06T07:42:55;1.85;;;1.30;;
7001;SDS011;3541;53.230;10.518;2022-09-06T07:45:21;2.22;;;1.33;;
7001;SDS011;3541;53.230;10.518;2022-09-06T07:47:52;2.95;;;1.15;;
7001;SDS011;3541;53.230;10.518;2022-09-06T07:50:19;3.30;;;1.48;;
7001;SDS011;3541;53.230;10.518;2022-09-06T07:52:46;3.95;;;1.50;;
7001;SDS011;3541;53.230;10.518;2022-09-06T07:55:14;1.60;;;1.50;;
7001;SDS011;3541;53.230;10.518;2022-09-06T07:57:41;3.28;;;1.55;;
7001;SDS011;3541;53.230;10.518;2022-09-06T08:00:08;2.60;;;1.25;;
7001;SDS011;3541;53.230;10.518;2022-09-06T08:02:36;2.45;;;1.38;;
7001;SDS011;3541;53.230;10.518;2022-09-06T08:05:03;4.05;;;1.67;;
7001;SDS011;3541;53.230;10.518;2022-09-06T08:07:30;3.05;;;1.40;;
7001;SDS011;3541;53.230;10.518;2022-09-06T08:09:56;4.55;;;1.20;;
7001;SDS011;3541;53.230;10.518;2022-09-06T08:12:24;2.15;;;1.25;;
7001;SDS011;3541;53.230;10.518;2022-09-06T08:14:51;2.20;;;1.40;;
7001;SDS011;3541;53.230;10.518;2022-09-06T08:17:18;1.60;;;1.38;;
7001;SDS011;3541;53.230;10.518;2022-09-06T08:19:45;2.25;;;1.58;;
7001;SDS011;3541;53.230;10.518;2022-09-06T08:22:12;3.00;;;1.45;;
7001;SDS011;3541;53.230;10.518;2022-09-06T08:24:38;1.88;;;1.48;;
7001;SDS011;3541;53.230;10.518;2022-09-06T08:27:05;4.35;;;1.30;;
7001;SDS011;3541;53.230;10.518;2022-09-06T08:29:33;1.83;;;1.40;;
7001;SDS011;3541;53.230;10.518;2022-09-06T08:32:00;1.50;;;1.30;;
7001;SDS011;3541;53.230;10.518;2022-09-06T08:34:27;3.80;;;1.42;;
7001;SDS011;3541;53.230;10.518;2022-09-06T08:36:54;2.25;;;1.67;;
7001;SDS011;3541;53.230;10.518;2022-09-06T08:39:20;1.80;;;1.55;;
7001;SDS011;3541;53.230;10.518;2022-09-06T08:41:48;1.85;;;1.58;;
7001;SDS011;3541;53.230;10.518;2022-09-06T08:44:19;3.22;;;1.70;;
7001;SDS011;3541;53.230;10.518;2022-09-06T08:46:54;3.17;;;1.65;;
7001;SDS011;3541;53.230;10.518;2022-09-06T08:49:24;2.03;;;1.48;;
7001;SDS011;3541;53.230;10.518;2022-09-06T08:52:01;2.50;;;1.40;;
7001;SDS011;3541;53.230;10.518;2022-09-06T08:54:47;1.85;;;1.40;;
7001;SDS011;3541;53.230;10.518;2022-09-06T08:57:27;3.80;;;1.30;;
7001;SDS011;3541;53.230;10.518;2022-09-06T09:00:04;2.50;;;1.50;;
7001;SDS011;3541;53.230;10.518;2022-09-06T09:02:38;1.70;;;1.60;;
7001;SDS011;3541;53.230;10.518;2022-09-06T09:05:12;3.00;;;1.60;;
7001;SDS011;3541;53.230;10.518;2022-09-06T09:07:48;3.20;;;1.58;;
7001;SDS011;3541;53.230;10.518;2022-09-06T09:10:26;2.13;;;1.58;;
7001;SDS011;3541;53.230;10.518;2022-09-06T09:12:54;1.65;;;1.40;;
7001;SDS011;3541;53.230;10.518;2022-09-06T09:15:21;2.47;;;1.40;;
7001;SDS011;3541;53.230;10.518;2022-09-06T09:17:50;1.83;;;1.63;;
7001;SDS011;3541;53.230;10.518;2022-09-06T09:20:17;3.28;;;1.60;;
7001;SDS011;3541;53.230;10.518;2022-09-06T09:22:45;4.43;;;1.67;;
7001;SDS011;3541;53.230;10.518;2022-09-06T09:25:15;3.40;;;1.70;;
7001;SDS011;3541;53.230;10.518;2022-09-06T09:27:44;2.50;;;1.60;;
7001;SDS011;3541;53.230;10.518;2022-09-06T09:30:12;2.95;;;1.83;;
7001;SDS011;3541;53.230;10.518;2022-09-06T09:32:39;1.85;;;1.60;;
7001;SDS011;3541;53.230;10.518;2022-09-06T09:35:17;1.42;;;1.25;;
7001;SDS011;3541;53.230;10.518;2022-09-06T09:37:55;3.78;;;1.92;;
7001;SDS011;3541;53.230;10.518;2022-09-06T09:40:29;2.17;;;1.70;;
7001;SDS011;3541;53.230;10.518;2022-09-06T09:43:08;3.67;;;1.80;;
7001;SDS011;3541;53.230;10.518;2022-09-06T09:45:38;2.38;;;1.90;;
7001;SDS011;3541;53.230;10.518;2022-09-06T09:48:16;1.67;;;1.52;;
7001;SDS011;3541;53.230;10.518;2022-09-06T09:50:46;2.13;;;1.60;;
7001;SDS011;3541;53.230;10.518;2022-09-06T09:53:14;3.42;;;2.00;;
7001;SDS011;3541;53.230;10.518;2022-09-06T09:55:43;3.65;;;1.90;;
7001;SDS011;3541;53.230;10.518;2022-09-06T09:58:16;2.25;;;1.88;;
7001;SDS011;3541;53.230;10.518;2022-09-06T10:03:42;2.05;;;1.70;;
7001;SDS011;3541;53.230;10.518;2022-09-06T10:06:12;4.05;;;2.35;;
7001;SDS011;3541;53.230;10.518;2022-09-06T10:08:40;6.00;;;2.13;;
7001;SDS011;3541;53.230;10.518;2022-09-06T10:11:10;12.70;;;3.15;;
7001;SDS011;3541;53.230;10.518;2022-09-06T10:13:37;3.83;;;2.10;;
7001;SDS011;3541;53.230;10.518;2022-09-06T10:16:06;4.15;;;2.10;;
7001;SDS011;3541;53.230;10.518;2022-09-06T10:18:34;4.93;;;2.13;;
7001;SDS011;3541;53.230;10.518;2022-09-06T10:21:02;3.75;;;1.92;;
7001;SDS011;3541;53.230;10.518;2022-09-06T10:23:34;4.25;;;1.90;;
7001;SDS011;3541;53.230;10.518;2022-09-06T10:26:10;4.43;;;2.00;;
7001;SDS011;3541;53.230;10.518;2022-09-06T10:28:45;3.40;;;2.20;;
7001;SDS011;3541;53.230;10.518;2022-09-06T10:31:16;2.30;;;1.92;;
7001;SDS011;3541;53.230;10.518;2022-09-06T10:34:02;4.75;;;2.55;;
7001;SDS011;3541;53.230;10.518;2022-09-06T10:36:42;3.72;;;2.28;;
7001;SDS011;3541;53.230;10.518;2022-09-06T10:39:18;2.92;;;2.10;;
7001;SDS011;3541;53.230;10.518;2022-09-06T10:42:00;3.58;;;2.40;;
7001;SDS011;3541;53.230;10.518;2022-09-06T10:44:41;10.20;;;2.50;;
7001;SDS011;3541;53.230;10.518;2022-09-06T10:47:17;2.70;;;2.10;;
7001;SDS011;3541;53.230;10.518;2022-09-06T10:49:44;3.83;;;1.90;;
7001;SDS011;3541;53.230;10.518;2022-09-06T10:52:16;2.30;;;2.10;;
7001;SDS011;3541;53.230;10.518;2022-09-06T10:54:49;2.45;;;2.17;;
7001;SDS011;3541;53.230;10.518;2022-09-06T10:57:18;3.63;;;2.05;;
7001;SDS011;3541;53.230;10.518;2022-09-06T10:59:52;4.80;;;2.33;;
7001;SDS011;3541;53.230;10.518;2022-09-06T11:02:28;8.45;;;2.55;;
7001;SDS011;3541;53.230;10.518;2022-09-06T11:05:02;3.40;;;2.20;;
7001;SDS011;3541;53.230;10.518;2022-09-06T11:07:35;4.05;;;2.35;;
7001;SDS011;3541;53.230;10.518;2022-09-06T11:10:08;3.17;;;2.15;;
7001;SDS011;3541;53.230;10.518;2022-09-06T11:12:40;4.88;;;2.22;;
7001;SDS011;3541;53.230;10.518;2022-09-06T11:15:12;6.15;;;2.38;;
7001;SDS011;3541;53.230;10.518;2022-09-06T11:17:42;2.70;;;2.40;;
7001;SDS011;3541;53.230;10.518;2022-09-06T11:20:14;4.82;;;2.10;;
7001;SDS011;3541;53.230;10.518;2022-09-06T11:22:55;2.30;;;2.08;;
7001;SDS011;3541;53.230;10.518;2022-09-06T11:25:53;6.55;;;2.50;;
7001;SDS011;3541;53.230;10.518;2022-09-06T11:28:37;4.07;;;2.58;;
7001;SDS011;3541;53.230;10.518;2022-09-06T11:31:08;3.40;;;2.00;;
7001;SDS011;3541;53.230;10.518;2022-09-06T11:33:37;2.95;;;2.53;;
7001;SDS011;3541;53.230;10.518;2022-09-06T11:36:15;4.60;;;2.40;;
7001;SDS011;3541;53.230;10.518;2022-09-06T11:38:52;3.75;;;2.30;;
7001;SDS011;3541;53.230;10.518;2022-09-06T11:41:21;3.45;;;2.17;;
7001;SDS011;3541;53.230;10.518;2022-09-06T11:43:54;2.78;;;2.33;;
7001;SDS011;3541;53.230;10.518;2022-09-06T11:49:30;4.68;;;2.38;;
7001;SDS011;3541;53.230;10.518;2022-09-06T11:52:02;3.38;;;2.30;;
7001;SDS011;3541;53.230;10.518;2022-09-06T11:55:28;4.03;;;2.10;;
7001;SDS011;3541;53.230;10.518;2022-09-06T11:57:59;2.53;;;2.30;;
7001;SDS011;3541;53.230;10.518;2022-09-06T12:00:28;3.30;;;2.15;;
7001;SDS011;3541;53.230;10.518;2022-09-06T12:02:54;2.63;;;2.22;;
7001;SDS011;3541;53.230;10.518;2022-09-06T12:05:22;5.78;;;2.50;;
7001;SDS011;3541;53.230;10.518;2022-09-06T12:10:46;3.90;;;2.63;;
7001;SDS011;3541;53.230;10.518;2022-09-06T12:16:22;4.88;;;2.58;;
7001;SDS011;3541;53.230;10.518;2022-09-06T12:21:44;2.90;;;2.22;;
7001;SDS011;3541;53.230;10.518;2022-09-06T12:27:18;3.47;;;2.35;;
7001;SDS011;3541;53.230;10.518;2022-09-06T12:29:48;6.00;;;2.20;;
7001;SDS011;3541;53.230;10.518;2022-09-06T12:32:19;2.65;;;2.20;;
7001;SDS011;3541;53.230;10.518;2022-09-06T12:34:49;3.53;;;2.33;;
7001;SDS011;3541;53.230;10.518;2022-09-06T12:37:28;2.47;;;2.20;;
7001;SDS011;3541;53.230;10.518;2022-09-06T12:39:57;3.78;;;2.40;;
7001;SDS011;3541;53.230;10.518;2022-09-06T12:42:26;3.50;;;2.25;;
7001;SDS011;3541;53.230;10.518;2022-09-06T12:44:53;3.97;;;2.20;;
7001;SDS011;3541;53.230;10.518;2022-09-06T12:47:22;2.70;;;2.47;;
7001;SDS011;3541;53.230;10.518;2022-09-06T12:50:08;2.63;;;2.25;;
7001;SDS011;3541;53.230;10.518;2022-09-06T12:52:42;5.05;;;2.65;;
7001;SDS011;3541;53.230;10.518;2022-09-06T12:55:21;3.17;;;2.50;;
7001;SDS011;3541;53.230;10.518;2022-09-06T12:57:52;4.85;;;2.40;;
7001;SDS011;3541;53.230;10.518;2022-09-06T13:00:20;2.53;;;2.22;;
7001;SDS011;3541;53.230;10.518;2022-09-06T13:02:51;3.67;;;2.40;;
7001;SDS011;3541;53.230;10.518;2022-09-06T13:05:26;4.28;;;2.40;;
7001;SDS011;3541;53.230;10.518;2022-09-06T13:07:56;3.53;;;2.40;;
7001;SDS011;3541;53.230;10.518;2022-09-06T13:10:25;5.15;;;2.42;;
7001;SDS011;3541;53.230;10.518;2022-09-06T13:12:55;4.50;;;2.95;;
7001;SDS011;3541;53.230;10.518;2022-09-06T13:15:24;4.07;;;2.22;;
7001;SDS011;3541;53.230;10.518;2022-09-06T13:17:53;5.63;;;2.40;;
7001;SDS011;3541;53.230;10.518;2022-09-06T13:20:40;4.28;;;2.40;;
7001;SDS011;3541;53.230;10.518;2022-09-06T13:23:08;2.65;;;2.33;;
7001;SDS011;3541;53.230;10.518;2022-09-06T13:25:45;3.88;;;2.47;;
7001;SDS011;3541;53.230;10.518;2022-09-06T13:28:23;3.15;;;2.60;;
7001;SDS011;3541;53.230;10.518;2022-09-06T13:33:34;4.80;;;2.83;;
7001;SDS011;3541;53.230;10.518;2022-09-06T13:36:07;7.13;;;2.80;;
7001;SDS011;3541;53.230;10.518;2022-09-06T13:38:44;4.88;;;3.00;;
7001;SDS011;3541;53.230;10.518;2022-09-06T13:44:26;4.72;;;2.72;;
7001;SDS011;3541;53.230;10.518;2022-09-06T13:46:55;5.40;;;2.80;;
7001;SDS011;3541;53.230;10.518;2022-09-06T13:49:22;4.88;;;3.25;;
7001;SDS011;3541;53.230;10.518;2022-09-06T13:51:49;3.17;;;2.70;;
7001;SDS011;3541;53.230;10.518;2022-09-06T13:54:17;2.95;;;2.70;;
7001;SDS011;3541;53.230;10.518;2022-09-06T13:56:44;4.00;;;2.83;;
7001;SDS011;3541;53.230;10.518;2022-09-06T13:59:12;7.78;;;3.20;;
7001;SDS011;3541;53.230;10.518;2022-09-06T14:01:41;6.53;;;3.13;;
7001;SDS011;3541;53.230;10.518;2022-09-06T14:04:09;5.07;;;3.25;;
7001;SDS011;3541;53.230;10.518;2022-09-06T14:06:38;4.75;;;3.40;;
7001;SDS011;3541;53.230;10.518;2022-09-06T14:09:05;4.60;;;3.40;;
7001;SDS011;3541;53.230;10.518;2022-09-06T14:11:32;4.43;;;3.58;;
7001;SDS011;3541;53.230;10.518;2022-09-06T14:14:00;4.97;;;3.28;;
7001;SDS011;3541;53.230;10.518;2022-09-06T14:16:27;3.92;;;3.13;;
7001;SDS011;3541;53.230;10.518;2022-09-06T14:18:55;5.50;;;3.28;;
7001;SDS011;3541;53.230;10.518;2022-09-06T14:21:21;3.53;;;2.88;;
7001;SDS011;3541;53.230;10.518;2022-09-06T14:23:49;4.80;;;3.15;;
7001;SDS011;3541;53.230;10.518;2022-09-06T14:26:17;5.35;;;3.15;;
7001;SDS011;3541;53.230;10.518;2022-09-06T14:28:45;4.57;;;3.45;;
7001;SDS011;3541;53.230;10.518;2022-09-06T14:31:12;4.35;;;3.00;;
7001;SDS011;3541;53.230;10.518;2022-09-06T14:33:41;5.57;;;3.10;;
7001;SDS011;3541;53.230;10.518;2022-09-06T14:36:10;4.63;;;3.53;;
7001;SDS011;3541;53.230;10.518;2022-09-06T14:38:38;5.45;;;3.10;;
7001;SDS011;3541;53.230;10.518;2022-09-06T14:41:06;8.32;;;3.67;;
7001;SDS011;3541;53.230;10.518;2022-09-06T14:43:34;4.50;;;3.60;;
7001;SDS011;3541;53.230;10.518;2022-09-06T14:46:02;4.80;;;3.50;;
7001;SDS011;3541;53.230;10.518;2022-09-06T14:48:30;3.85;;;3.45;;
7001;SDS011;3541;53.230;10.518;2022-09-06T14:50:57;3.75;;;3.25;;
7001;SDS011;3541;53.230;10.518;2022-09-06T14:53:27;6.85;;;3.55;;
7001;SDS011;3541;53.230;10.518;2022-09-06T14:55:59;3.60;;;3.22;;
7001;SDS011;3541;53.230;10.518;2022-09-06T14:58:27;3.75;;;3.10;;
7001;SDS011;3541;53.230;10.518;2022-09-06T15:00:55;6.13;;;3.63;;
7001;SDS011;3541;53.230;10.518;2022-09-06T15:03:32;3.80;;;3.42;;
7001;SDS011;3541;53.230;10.518;2022-09-06T15:05:59;5.15;;;3.33;;
7001;SDS011;3541;53.230;10.518;2022-09-06T15:08:27;5.75;;;3.80;;
7001;SDS011;3541;53.230;10.518;2022-09-06T15:10:54;6.88;;;3.28;;
7001;SDS011;3541;53.230;10.518;2022-09-06T15:13:22;4.05;;;3.65;;
7001;SDS011;3541;53.230;10.518;2022-09-06T15:15:48;5.63;;;3.17;;
7001;SDS011;3541;53.230;10.518;2022-09-06T15:18:15;6.00;;;3.08;;
7001;SDS011;3541;53.230;10.518;2022-09-06T15:20:42;6.15;;;3.45;;
7001;SDS011;3541;53.230;10.518;2022-09-06T15:23:08;4.13;;;3.38;;
7001;SDS011;3541;53.230;10.518;2022-09-06T15:25:37;3.25;;;2.72;;
7001;SDS011;3541;53.230;10.518;2022-09-06T15:28:09;7.03;;;3.70;;
7001;SDS011;3541;53.230;10.518;2022-09-06T15:30:37;4.60;;;3.38;;
7001;SDS011;3541;53.230;10.518;2022-09-06T15:33:03;5.93;;;3.50;;
7001;SDS011;3541;53.230;10.518;2022-09-06T15:35:34;6.15;;;3.30;;
7001;SDS011;3541;53.230;10.518;2022-09-06T15:38:01;4.68;;;3.60;;
7001;SDS011;3541;53.230;10.518;2022-09-06T15:40:28;4.75;;;3.85;;
7001;SDS011;3541;53.230;10.518;2022-09-06T15:42:56;4.63;;;3.67;;